Time;durP1;ratioP1;P1;durP2;ratioP2;P2;SDS_P1;SDS_P2;PMS_P1;PMS_P2;Temp;Humidity;BMP_temperature;BMP_pressure;BME280_temperature;BME280_humidity;BME280_pressure;Samples;Min_cycle;Max_cycle;Signal;HPM_P1;HPM_P2
2021/12/25 00:01:40;;;;;;;2.80;1.80;;;;;;;4.03;74.07;96695.67;101213;1325;73424;-21
2021/12/25 00:04:09;;;;;;;3.50;2.10;;;;;;;4.06;73.42;96700.34;101490;1322;61319;-21
2021/12/25 00:06:38;;;;;;;4.50;2.20;;;;;;;3.88;73.84;96705.45;101271;1326;61199;-20
2021/12/25 00:09:07;;;;;;;3.80;2.20;;;;;;;3.69;74.34;96714.00;101194;1320;75603;-20
2021/12/25 00:11:35;;;;;;;4.80;2.50;;;;;;;3.46;74.96;96718.09;101487;1325;75899;-20
2021/12/25 00:14:10;;;;;;;3.60;2.10;;;;;;;3.33;75.75;96720.84;101404;1324;73581;-20
2021/12/25 00:16:44;;;;;;;2.20;1.40;;;;;;;3.84;74.46;96712.86;101469;1325;61194;-20
2021/12/25 00:19:12;;;;;;;3.10;2.20;;;;;;;4.15;73.06;96718.27;101447;1325;62449;-20
2021/12/25 00:21:48;;;;;;;4.70;2.20;;;;;;;4.01;73.23;96721.45;101256;1322;74865;-20
2021/12/25 00:24:17;;;;;;;4.00;2.10;;;;;;;3.79;73.90;96719.01;101499;1321;75114;-20
2021/12/25 00:30:24;;;;;;;4.00;1.70;;;;;;;3.44;74.90;96735.59;101294;1328;61250;-20
2021/12/25 00:34:47;;;;;;;3.30;2.40;;;;;;;3.82;74.29;96748.02;101170;1328;74793;-21
2021/12/25 00:37:15;;;;;;;2.70;1.90;;;;;;;3.95;73.46;96756.34;101267;1328;76107;-20
2021/12/25 00:39:44;;;;;;;3.80;2.10;;;;;;;3.78;73.96;96758.16;101122;1328;73028;-20
2021/12/25 00:42:12;;;;;;;4.40;2.50;;;;;;;3.58;74.77;96766.26;101267;1320;62520;-20
2021/12/25 00:44:42;;;;;;;2.70;1.80;;;;;;;3.39;75.49;96771.08;101542;1320;61950;-20
2021/12/25 00:47:10;;;;;;;3.90;2.30;;;;;;;3.16;76.48;96775.26;101447;1325;73940;-21
2021/12/25 00:49:39;;;;;;;2.30;2.00;;;;;;;3.23;76.91;96756.82;101526;1325;75867;-20
2021/12/25 00:52:09;;;;;;;3.20;2.10;;;;;;;3.75;75.21;96768.00;101524;1327;74230;-20
2021/12/25 00:54:38;;;;;;;2.80;1.80;;;;;;;3.91;74.48;96781.08;101377;1326;61215;-21
2021/12/25 00:57:06;;;;;;;3.60;2.40;;;;;;;3.71;75.20;96783.38;101276;1325;61273;-20
2021/12/25 00:59:35;;;;;;;4.20;3.20;;;;;;;3.50;76.31;96794.48;101509;1325;71585;-20
2021/12/25 01:02:04;;;;;;;4.70;3.00;;;;;;;3.21;77.81;96784.66;101465;1325;75233;-20
2021/12/25 01:04:32;;;;;;;5.30;2.60;;;;;;;3.16;78.42;96776.83;101507;1322;73606;-20
2021/12/25 01:07:01;;;;;;;3.70;2.60;;;;;;;3.51;77.47;96787.19;101556;1323;61237;-20
2021/12/25 01:09:31;;;;;;;4.60;3.10;;;;;;;3.48;77.16;96771.61;101209;1322;326328;-21
2021/12/25 01:12:02;;;;;;;5.20;2.70;;;;;;;3.44;77.10;96771.80;101238;1325;74771;-20
2021/12/25 01:26:03;;;;;;;4.40;2.90;;;;;;;3.21;76.88;96811.92;101462;1325;76127;-20
2021/12/25 01:31:17;;;;;;;3.80;2.50;;;;;;;2.56;78.98;96799.46;101330;1323;73323;-20
2021/12/25 01:49:03;;;;;;;4.60;3.10;;;;;;;2.43;79.29;96833.73;102031;1313;61187;-20
2021/12/25 01:51:32;;;;;;;3.40;2.40;;;;;;;2.36;79.19;96864.98;102088;1313;62105;-20
2021/12/25 01:54:01;;;;;;;3.50;2.40;;;;;;;2.03;79.52;96852.09;102110;1313;74641;-20
2021/12/25 01:56:30;;;;;;;3.80;2.40;;;;;;;1.91;79.50;96868.29;101938;1312;76008;-20
2021/12/25 01:58:59;;;;;;;3.80;2.60;;;;;;;1.89;79.54;96863.09;101986;1313;73741;-20
2021/12/25 02:01:28;;;;;;;2.50;2.10;;;;;;;2.16;78.36;96867.25;101953;1314;61905;-20
2021/12/25 02:03:56;;;;;;;3.30;2.50;;;;;;;2.01;78.50;96857.55;101983;1317;62221;-20
2021/12/25 02:06:26;;;;;;;3.90;2.50;;;;;;;1.77;79.33;96878.21;102026;1314;75497;-20
2021/12/25 02:08:55;;;;;;;3.00;2.10;;;;;;;1.50;80.56;96884.52;101837;1314;74137;-20
2021/12/25 02:11:25;;;;;;;4.10;2.40;;;;;;;1.56;80.08;96906.96;102026;1317;74323;-20
2021/12/25 02:13:53;;;;;;;10.50;2.70;;;;;;;1.76;79.37;96894.45;101945;1317;62182;-19
2021/12/25 02:16:25;;;;;;;2.90;1.80;;;;;;;1.61;79.31;96922.27;102009;1313;61175;-20
2021/12/25 02:19:10;;;;;;;3.20;2.40;;;;;;;1.38;80.20;96911.77;101966;1313;74216;-20
2021/12/25 02:21:58;;;;;;;3.10;1.60;;;;;;;1.05;82.17;96950.66;101810;1314;75947;-20
2021/12/25 02:24:26;;;;;;;3.00;1.60;;;;;;;1.19;81.88;96943.07;101930;1313;74397;-20
2021/12/25 02:27:04;;;;;;;2.40;1.70;;;;;;;1.32;80.77;96939.40;101979;1320;61231;-20
2021/12/25 02:29:34;;;;;;;2.40;1.70;;;;;;;1.15;81.50;96975.09;101731;1314;61263;-20
2021/12/25 02:32:03;;;;;;;4.00;2.10;;;;;;;0.86;82.43;96971.23;101961;1312;75382;-20
2021/12/25 02:34:33;;;;;;;4.50;2.00;;;;;;;0.64;83.63;96975.43;101911;1314;74379;-19
2021/12/25 02:37:01;;;;;;;3.80;1.80;;;;;;;0.91;83.08;96987.73;101943;1313;73410;-19
2021/12/25 02:39:30;;;;;;;4.00;2.30;;;;;;;1.14;82.15;96986.45;101555;1317;61259;-19
2021/12/25 02:41:59;;;;;;;2.20;1.70;;;;;;;0.97;82.42;96984.27;102042;1315;61174;-19
2021/12/25 02:44:27;;;;;;;2.90;1.80;;;;;;;0.81;82.36;96981.49;101837;1313;74897;-19
2021/12/25 02:46:58;;;;;;;2.10;1.60;;;;;;;0.72;83.24;97004.55;101892;1314;76239;-19
2021/12/25 02:49:27;;;;;;;2.60;1.70;;;;;;;0.92;81.88;96997.58;101958;1316;71642;-19
2021/12/25 02:51:55;;;;;;;2.90;1.80;;;;;;;1.04;80.93;97022.55;101689;1314;61101;-19
2021/12/25 02:54:24;;;;;;;1.90;1.30;;;;;;;0.69;81.62;97017.58;102059;1317;61856;-19
2021/12/25 02:56:52;;;;;;;3.10;1.50;;;;;;;0.68;81.96;97030.43;101957;1313;75903;-19
2021/12/25 02:59:21;;;;;;;2.80;1.60;;;;;;;0.50;83.11;97039.30;101730;1313;75148;-18
2021/12/25 03:02:09;;;;;;;4.20;2.00;;;;;;;0.83;81.81;97038.92;102091;1313;73536;-19
2021/12/25 03:04:40;;;;;;;2.60;1.80;;;;;;;0.80;81.42;97032.17;101773;1320;61424;-20
2021/12/25 03:07:08;;;;;;;5.60;2.30;;;;;;;0.78;81.49;97048.70;101860;1315;61238;-19
2021/12/25 03:09:37;;;;;;;3.60;2.00;;;;;;;0.43;82.84;97041.63;102145;1314;74723;-18
2021/12/25 03:12:08;;;;;;;2.60;2.10;;;;;;;0.31;83.30;97034.17;101797;1317;74611;-19
2021/12/25 03:14:49;;;;;;;3.20;1.70;;;;;;;0.64;82.08;97057.05;101613;1318;72166;-19
2021/12/25 03:17:18;;;;;;;3.20;2.10;;;;;;;0.75;81.58;97082.18;101727;1318;61239;-19
2021/12/25 03:19:46;;;;;;;2.40;1.80;;;;;;;0.48;82.56;97076.98;101670;1314;61917;-19
2021/12/25 03:22:14;;;;;;;3.70;2.30;;;;;;;0.38;83.24;97088.59;101916;1312;75511;-19
2021/12/25 03:24:43;;;;;;;2.70;2.30;;;;;;;0.44;83.13;97113.67;102022;1312;75405;-19
2021/12/25 03:27:11;;;;;;;1.80;1.70;;;;;;;0.69;81.85;97122.98;101871;1315;74483;-18
2021/12/25 03:29:41;;;;;;;2.90;2.10;;;;;;;0.62;81.40;97111.99;101989;1312;61078;-19
2021/12/25 03:32:10;;;;;;;4.90;3.30;;;;;;;0.37;82.36;97109.36;101793;1314;61211;-19
2021/12/25 03:34:39;;;;;;;3.10;1.60;;;;;;;0.09;83.23;97119.48;101849;1314;74395;-19
2021/12/25 03:37:07;;;;;;;3.60;2.50;;;;;;;0.52;82.47;97147.41;102121;1312;76281;-19
2021/12/25 03:39:36;;;;;;;2.80;2.10;;;;;;;0.73;81.12;97143.17;102070;1314;74537;-19
2021/12/25 03:42:05;;;;;;;2.50;1.90;;;;;;;0.74;81.32;97151.48;101937;1314;61235;-19
2021/12/25 03:44:35;;;;;;;3.10;2.60;;;;;;;0.59;81.78;97158.52;101881;1316;62151;-19
2021/12/25 03:47:12;;;;;;;3.20;2.70;;;;;;;0.39;82.65;97166.36;101758;1314;75726;-19
2021/12/25 03:58:13;;;;;;;3.30;2.30;;;;;;;0.18;83.82;97167.30;102168;1313;62625;-19
2021/12/25 04:00:43;;;;;;;5.30;3.50;;;;;;;0.08;84.66;97195.80;102030;1313;74599;-19
2021/12/25 04:03:21;;;;;;;4.90;3.20;;;;;;;0.21;83.81;97196.44;101960;1314;75096;-19
2021/12/25 04:05:49;;;;;;;3.90;3.10;;;;;;;0.35;82.34;97205.23;101908;1312;73228;-19
2021/12/25 04:08:23;;;;;;;5.40;3.40;;;;;;;0.26;82.39;97199.71;101780;1314;61195;-19
2021/12/25 04:11:00;;;;;;;3.90;2.90;;;;;;;0.20;82.04;97197.59;101999;1313;61234;-19
2021/12/25 04:13:28;;;;;;;3.10;2.70;;;;;;;-0.05;82.93;97199.09;101950;1317;75405;-19
2021/12/25 04:15:57;;;;;;;5.40;3.60;;;;;;;0.21;81.96;97196.98;101747;1319;73791;-19
2021/12/25 04:18:26;;;;;;;4.20;2.60;;;;;;;0.36;80.84;97202.48;102064;1312;74384;-19
2021/12/25 04:20:54;;;;;;;4.60;2.90;;;;;;;0.33;80.70;97213.95;101947;1316;61180;-19
2021/12/25 04:23:27;;;;;;;6.40;3.00;;;;;;;0.12;80.71;97196.26;101784;1313;61294;-19
2021/12/25 04:25:58;;;;;;;5.20;2.90;;;;;;;0.03;80.74;97195.79;101928;1312;74807;-19
2021/12/25 04:28:53;;;;;;;4.60;3.20;;;;;;;0.44;79.61;97208.41;101983;1312;76224;-19
2021/12/25 04:42:50;;;;;;;2.50;2.30;;;;;;;0.31;77.88;97221.93;101794;1315;74548;-19
2021/12/25 05:04:43;;;;;;;4.80;3.70;;;;;;;-0.08;77.49;97278.09;102103;1314;61198;-19
2021/12/25 05:07:32;;;;;;;4.40;3.30;;;;;;;-0.16;78.48;97275.05;102112;1316;75676;-20
2021/12/25 05:10:00;;;;;;;3.20;2.40;;;;;;;0.12;77.55;97294.90;102058;1313;74319;-19
2021/12/25 05:12:34;;;;;;;3.70;3.10;;;;;;;0.13;76.83;97288.84;101832;1314;74490;-19
2021/12/25 05:15:05;;;;;;;5.90;3.50;;;;;;;0.13;76.94;97306.44;102060;1313;61107;-19
2021/12/25 05:17:33;;;;;;;3.70;3.00;;;;;;;-0.12;77.33;97300.52;101708;1316;61274;-19
2021/12/25 05:20:04;;;;;;;6.30;4.60;;;;;;;-0.21;78.27;97310.84;102046;1313;74889;-21
2021/12/25 05:22:32;;;;;;;6.00;3.80;;;;;;;-0.28;78.31;97311.66;101622;1319;76892;-20
2021/12/25 05:25:01;;;;;;;5.60;3.80;;;;;;;0.18;76.23;97306.57;101893;1313;74445;-20
2021/12/25 05:27:32;;;;;;;6.90;4.90;;;;;;;0.38;75.28;97318.09;101647;1314;62905;-20
2021/12/25 05:30:00;;;;;;;6.50;4.40;;;;;;;0.21;75.53;97328.59;101916;1312;62687;-19
2021/12/25 05:32:48;;;;;;;8.80;4.40;;;;;;;-0.11;76.05;97340.55;101943;1312;74425;-20
2021/12/25 05:35:42;;;;;;;5.40;3.80;;;;;;;-0.18;76.54;97350.18;101633;1316;75131;-19
2021/12/25 05:38:34;;;;;;;4.20;3.10;;;;;;;-0.23;76.95;97349.48;101905;1314;74139;-20
2021/12/25 05:41:13;;;;;;;4.20;2.80;;;;;;;0.20;75.87;97360.08;101923;1313;61259;-20
2021/12/25 05:43:42;;;;;;;6.50;4.60;;;;;;;0.39;74.66;97364.27;102028;1312;62249;-20
2021/12/25 05:46:13;;;;;;;6.30;4.60;;;;;;;0.21;74.95;97362.90;101668;1316;74699;-19
2021/12/25 05:48:45;;;;;;;5.90;4.20;;;;;;;0.10;75.30;97379.83;101859;1312;76183;-19
2021/12/25 05:51:50;;;;;;;6.40;3.80;;;;;;;-0.22;76.54;97374.49;102188;1313;73501;-19
2021/12/25 05:54:29;;;;;;;5.90;3.90;;;;;;;-0.24;76.57;97360.85;102215;1313;61234;-20
2021/12/25 05:56:58;;;;;;;7.30;4.90;;;;;;;0.04;75.63;97373.73;101872;1314;61264;-19
2021/12/25 05:59:46;;;;;;;6.80;4.80;;;;;;;0.04;74.93;97378.52;101539;1314;74698;-20
2021/12/25 06:02:43;;;;;;;5.70;4.00;;;;;;;0.09;75.08;97394.91;101582;1314;76116;-19
2021/12/25 06:05:26;;;;;;;6.90;4.50;;;;;;;-0.18;75.46;97389.10;101568;1314;74285;-19
2021/12/25 06:07:54;;;;;;;9.70;6.10;;;;;;;-0.33;76.04;97400.27;101723;1315;61228;-19
2021/12/25 06:10:23;;;;;;;6.00;5.10;;;;;;;-0.47;76.57;97401.17;101716;1315;61813;-19
2021/12/25 06:12:55;;;;;;;10.60;5.30;;;;;;;-0.22;75.53;97393.27;101865;1313;75403;-19
2021/12/25 06:15:43;;;;;;;9.50;5.40;;;;;;;0.01;74.71;97415.89;101771;1315;77247;-19
2021/12/25 06:18:38;;;;;;;7.80;5.30;;;;;;;-0.09;75.30;97424.23;101784;1314;74335;-19
2021/12/25 06:21:20;;;;;;;6.30;4.30;;;;;;;-0.34;75.89;97428.83;101834;1313;61406;-19
2021/12/25 06:24:22;;;;;;;4.00;3.20;;;;;;;-0.81;73.53;97473.41;101731;1315;61369;-18
2021/12/25 06:27:04;;;;;;;3.20;2.40;;;;;;;-1.17;72.86;97458.91;101669;1315;75725;-18
2021/12/25 06:29:51;;;;;;;3.30;2.10;;;;;;;-1.34;74.15;97470.93;101633;1315;76210;-19
2021/12/25 06:32:59;;;;;;;5.50;1.70;;;;;;;-1.11;74.00;97480.84;101136;1322;74727;-19
2021/12/25 06:35:46;;;;;;;4.40;2.70;;;;;;;-0.88;72.82;97491.92;101200;1321;61125;-19
2021/12/25 06:38:40;;;;;;;5.10;3.50;;;;;;;-1.01;73.50;97502.56;101262;1313;61127;-19
2021/12/25 06:41:21;;;;;;;6.10;3.40;;;;;;;-1.29;74.23;97493.98;101614;1314;74672;-19
2021/12/25 06:43:49;;;;;;;4.40;3.10;;;;;;;-1.42;75.30;97504.73;101683;1315;75982;-19
2021/12/25 06:46:33;;;;;;;4.20;2.70;;;;;;;-1.48;76.25;97517.36;101913;1314;72802;-19
2021/12/25 06:49:02;;;;;;;5.10;3.30;;;;;;;-1.32;75.84;97514.40;101564;1314;61961;-19
2021/12/25 06:51:50;;;;;;;4.80;3.40;;;;;;;-1.11;75.37;97519.98;101651;1315;62225;-19
2021/12/25 06:54:41;;;;;;;4.20;2.90;;;;;;;-1.17;75.94;97532.64;101651;1315;75618;-19
2021/12/25 06:57:19;;;;;;;6.40;3.10;;;;;;;-1.27;76.76;97541.19;101656;1315;75191;-19
2021/12/25 06:59:48;;;;;;;3.80;2.60;;;;;;;-1.51;77.81;97543.21;101845;1317;73561;-19
2021/12/25 07:02:17;;;;;;;5.40;3.50;;;;;;;-1.58;78.25;97543.95;102082;1317;61055;-19
2021/12/25 07:05:06;;;;;;;3.50;2.70;;;;;;;-1.34;78.38;97558.80;102035;1314;61138;-19
2021/12/25 07:07:53;;;;;;;4.20;2.80;;;;;;;-1.42;77.31;97548.51;101776;1314;74682;-18
2021/12/25 07:10:26;;;;;;;4.30;3.20;;;;;;;-1.37;77.24;97571.38;101927;1313;74283;-18
2021/12/25 07:13:19;;;;;;;5.30;3.30;;;;;;;-1.75;78.29;97571.77;101669;1315;73387;-18
2021/12/25 07:16:13;;;;;;;3.70;2.70;;;;;;;-1.78;78.68;97597.97;101780;1318;61149;-19
2021/12/25 07:18:51;;;;;;;4.80;3.10;;;;;;;-1.64;78.08;97610.96;102269;1312;61113;-19
2021/12/25 07:21:43;;;;;;;4.50;2.90;;;;;;;-1.29;76.10;97610.77;102216;1314;75516;-19
2021/12/25 07:24:31;;;;;;;3.80;2.30;;;;;;;-1.09;75.63;97615.27;102038;1313;76158;-19
2021/12/25 07:27:18;;;;;;;4.50;3.30;;;;;;;-1.46;75.87;97605.92;102001;1312;72199;-19
2021/12/25 07:29:55;;;;;;;4.80;2.90;;;;;;;-1.63;76.61;97614.02;101929;1313;62717;-19
2021/12/25 07:32:23;;;;;;;6.10;3.50;;;;;;;-1.76;76.60;97626.80;101943;1314;61359;-19
2021/12/25 07:34:52;;;;;;;6.10;3.30;;;;;;;-1.98;76.88;97626.73;101890;1312;73449;-18
2021/12/25 07:37:20;;;;;;;4.20;2.80;;;;;;;-1.81;76.55;97625.65;101912;1316;75110;-18
2021/12/25 07:39:48;;;;;;;3.70;2.40;;;;;;;-1.55;75.30;97632.66;101856;1316;73613;-19
2021/12/25 07:42:17;;;;;;;6.10;3.60;;;;;;;-1.44;74.48;97649.77;101849;1313;61179;-19
2021/12/25 07:45:06;;;;;;;6.20;3.10;;;;;;;-1.61;74.88;97652.56;101891;1314;61588;-19
2021/12/25 07:47:36;;;;;;;4.60;3.00;;;;;;;-1.87;75.90;97656.77;101951;1314;75686;-19
2021/12/25 07:50:05;;;;;;;4.30;2.70;;;;;;;-2.02;76.03;97653.48;102081;1313;75924;-19
2021/12/25 07:52:35;;;;;;;5.40;3.40;;;;;;;-2.18;76.96;97654.67;101712;1317;74021;-19
2021/12/25 07:55:03;;;;;;;3.50;2.60;;;;;;;-2.11;76.76;97655.16;101934;1312;61481;-19
2021/12/25 07:57:38;;;;;;;4.00;2.50;;;;;;;-1.65;74.89;97656.45;101684;1317;61121;-19
2021/12/25 08:00:08;;;;;;;4.90;3.20;;;;;;;-1.61;74.61;97657.30;101980;1313;75225;-18
2021/12/25 08:02:42;;;;;;;4.10;2.70;;;;;;;-1.68;74.85;97660.41;101692;1313;72983;-19
2021/12/25 08:05:11;;;;;;;3.40;2.50;;;;;;;-1.84;75.37;97677.56;101662;1313;74184;-19
2021/12/25 08:07:40;;;;;;;4.70;2.90;;;;;;;-2.05;75.78;97682.05;101923;1313;61206;-18
2021/12/25 08:10:16;;;;;;;6.40;3.00;;;;;;;-2.13;76.52;97697.41;101948;1313;63015;-19
2021/12/25 08:12:51;;;;;;;5.10;3.40;;;;;;;-2.28;76.44;97697.99;102063;1312;74362;-18
2021/12/25 08:15:22;;;;;;;1.90;1.50;;;;;;;-2.07;75.77;97701.53;102142;1314;76226;-19
2021/12/25 08:17:51;;;;;;;5.20;3.10;;;;;;;-1.50;73.99;97709.13;101829;1314;74223;-18
2021/12/25 08:20:34;;;;;;;6.40;3.60;;;;;;;-1.04;72.51;97719.09;102143;1314;61553;-19
2021/12/25 08:23:21;;;;;;;5.60;3.10;;;;;;;-1.22;73.14;97723.80;101691;1313;61118;-19
2021/12/25 08:26:09;;;;;;;3.60;2.50;;;;;;;-1.25;74.04;97719.70;102038;1313;74627;-19
2021/12/25 08:28:56;;;;;;;6.50;3.40;;;;;;;-1.46;73.65;97717.27;101998;1312;75106;-19
2021/12/25 08:31:44;;;;;;;3.20;2.10;;;;;;;-1.52;74.36;97720.67;101937;1312;73265;-19
2021/12/25 08:34:44;;;;;;;6.30;3.20;;;;;;;-1.48;74.07;97737.98;101622;1312;61300;-19
2021/12/25 08:37:23;;;;;;;4.60;3.30;;;;;;;-1.64;74.54;97738.31;101992;1313;61231;-18
2021/12/25 08:39:53;;;;;;;4.80;2.20;;;;;;;-1.76;74.45;97741.30;102002;1312;74616;-19
2021/12/25 08:42:21;;;;;;;5.40;3.10;;;;;;;-1.58;71.39;97740.35;102006;1313;76139;-19
2021/12/25 08:45:04;;;;;;;3.60;2.20;;;;;;;-1.20;70.03;97750.42;102112;1312;74318;-19
2021/12/25 08:47:36;;;;;;;4.00;2.30;;;;;;;-1.39;68.59;97743.77;101701;1320;61231;-19
2021/12/25 08:50:07;;;;;;;3.70;2.50;;;;;;;-1.43;68.40;97753.52;101787;1314;61196;-18
2021/12/25 08:52:35;;;;;;;3.80;2.40;;;;;;;-1.70;69.09;97750.15;101799;1315;74305;-19
2021/12/25 08:55:04;;;;;;;3.70;2.70;;;;;;;-1.76;68.64;97755.25;102064;1312;74839;-19
2021/12/25 08:57:32;;;;;;;2.50;1.90;;;;;;;-2.10;68.35;97763.91;101757;1316;73218;-19
2021/12/25 09:00:05;;;;;;;3.00;1.90;;;;;;;-1.98;68.04;97753.84;101958;1314;61435;-18
2021/12/25 09:02:35;;;;;;;4.40;2.80;;;;;;;-2.13;69.26;97769.67;101870;1316;61202;-19
2021/12/25 09:05:04;;;;;;;4.70;2.20;;;;;;;-2.22;68.47;97766.74;102061;1312;75668;-20
2021/12/25 09:07:32;;;;;;;4.10;2.00;;;;;;;-2.35;68.18;97765.37;101777;1316;76153;-19
2021/12/25 09:10:01;;;;;;;6.00;2.50;;;;;;;-2.53;69.22;97787.63;102103;1313;230557;-19
2021/12/25 09:12:32;;;;;;;3.30;2.10;;;;;;;-2.59;68.77;97793.34;102160;1314;61194;-19
2021/12/25 09:15:01;;;;;;;3.10;2.10;;;;;;;-2.65;68.63;97782.23;102296;1313;61330;-19
2021/12/25 09:17:29;;;;;;;4.00;3.00;;;;;;;-2.75;68.79;97791.41;102181;1314;75369;-19
2021/12/25 09:20:07;;;;;;;5.30;2.30;;;;;;;-2.80;68.91;97788.06;102115;1317;76295;-19
2021/12/25 09:22:37;;;;;;;3.70;2.30;;;;;;;-2.84;68.59;97781.29;102150;1319;73590;-19
2021/12/25 09:25:05;;;;;;;2.50;1.80;;;;;;;-2.93;68.68;97791.69;102252;1312;61249;-18
2021/12/25 09:27:34;;;;;;;3.50;2.30;;;;;;;-3.03;69.36;97793.86;102179;1313;61262;-19
2021/12/25 09:30:04;;;;;;;2.90;1.90;;;;;;;-3.05;69.61;97799.23;102289;1312;72952;-18
2021/12/25 09:32:32;;;;;;;7.80;2.20;;;;;;;-2.76;68.96;97801.43;101920;1315;76134;-19
2021/12/25 09:35:00;;;;;;;3.70;2.50;;;;;;;-2.21;66.57;97804.27;102069;1313;74407;-19
2021/12/25 09:37:29;;;;;;;4.00;2.40;;;;;;;-2.24;66.39;97808.67;102181;1312;61765;-18
2021/12/25 09:39:58;;;;;;;2.10;1.70;;;;;;;-2.29;66.79;97810.63;102248;1315;61116;-19
2021/12/25 09:42:27;;;;;;;3.40;2.30;;;;;;;-2.50;67.41;97806.02;102156;1315;75381;-18
2021/12/25 09:44:55;;;;;;;3.50;2.00;;;;;;;-2.67;67.82;97807.33;102193;1312;75954;-19
2021/12/25 09:47:24;;;;;;;4.90;2.20;;;;;;;-2.72;68.33;97807.91;101995;1312;74455;-19
2021/12/25 09:49:53;;;;;;;2.60;1.80;;;;;;;-2.68;68.26;97816.52;102006;1312;61138;-19
2021/12/25 09:52:21;;;;;;;3.60;2.50;;;;;;;-2.55;68.24;97819.02;101798;1317;62420;-19
2021/12/25 09:54:50;;;;;;;2.70;1.60;;;;;;;-2.62;68.08;97818.27;101824;1313;73347;-19
2021/12/25 09:57:18;;;;;;;4.10;2.10;;;;;;;-2.66;68.78;97823.92;102092;1312;76036;-19
2021/12/25 09:59:47;;;;;;;4.30;2.20;;;;;;;-2.76;68.91;97830.89;102146;1312;71904;-19
2021/12/25 10:02:15;;;;;;;3.90;2.40;;;;;;;-2.78;69.27;97836.20;102040;1313;61097;-18
2021/12/25 10:04:51;;;;;;;2.80;1.60;;;;;;;-2.70;69.51;97840.45;102265;1313;61126;-18
2021/12/25 10:07:23;;;;;;;2.70;1.90;;;;;;;-2.83;69.56;97845.10;101997;1319;72844;-19
2021/12/25 10:09:54;;;;;;;4.50;2.70;;;;;;;-2.56;69.25;97840.29;101838;1316;76172;-19
2021/12/25 10:12:27;;;;;;;3.30;1.80;;;;;;;-2.19;67.14;97838.55;101697;1312;73424;-19
2021/12/25 10:14:55;;;;;;;3.40;2.10;;;;;;;-2.22;66.41;97833.91;101839;1313;61286;-19
2021/12/25 10:17:26;;;;;;;3.10;2.10;;;;;;;-2.35;67.22;97838.81;101735;1313;62238;-18
2021/12/25 10:20:08;;;;;;;3.40;2.20;;;;;;;-2.49;67.78;97846.09;101919;1314;75687;-18
2021/12/25 10:23:15;;;;;;;2.90;1.90;;;;;;;-2.59;68.95;97857.40;102154;1314;77288;-19
2021/12/25 10:25:51;;;;;;;2.80;1.90;;;;;;;-2.81;69.26;97861.30;102194;1314;74520;-18
2021/12/25 10:28:22;;;;;;;2.10;1.40;;;;;;;-2.79;69.25;97852.23;102149;1313;61307;-18
2021/12/25 10:31:00;;;;;;;5.00;2.70;;;;;;;-2.92;69.23;97857.42;102103;1314;61321;-19
2021/12/25 10:33:41;;;;;;;5.00;2.80;;;;;;;-3.07;69.38;97858.59;102191;1318;75608;-18
2021/12/25 10:36:31;;;;;;;3.50;2.30;;;;;;;-3.16;70.08;97861.35;102026;1312;76023;-19
2021/12/25 10:39:05;;;;;;;4.70;2.90;;;;;;;-3.17;69.93;97863.27;101872;1315;73528;-19
2021/12/25 10:41:37;;;;;;;2.00;1.40;;;;;;;-3.26;70.48;97867.58;102007;1313;61266;-19
2021/12/25 10:44:17;;;;;;;3.90;2.20;;;;;;;-2.69;69.87;97872.30;102087;1319;61338;-19
2021/12/25 10:47:09;;;;;;;5.10;2.40;;;;;;;-2.34;68.27;97871.88;101992;1314;75640;-19
2021/12/25 10:49:44;;;;;;;2.50;1.70;;;;;;;-2.31;67.63;97870.20;101732;1315;74695;-19
2021/12/25 10:52:47;;;;;;;4.40;2.30;;;;;;;-2.32;67.80;97878.23;101682;1316;72415;-19
2021/12/25 10:55:18;;;;;;;2.80;1.60;;;;;;;-2.75;68.28;97891.61;102122;1312;61103;-18
2021/12/25 10:57:52;;;;;;;3.40;2.00;;;;;;;-2.77;69.41;97885.94;102284;1313;61610;-19
2021/12/25 11:00:20;;;;;;;3.90;2.00;;;;;;;-2.91;69.42;97877.23;102172;1313;75767;-18
2021/12/25 11:03:03;;;;;;;3.60;1.90;;;;;;;-3.11;69.99;97877.94;102262;1312;76170;-18
2021/12/25 11:05:33;;;;;;;;;;;;;;;-3.02;71.01;97878.40;102201;1314;74264;-18
2021/12/25 11:08:09;;;;;;;2.50;1.70;;;;;;;-3.02;70.45;97878.54;101982;1317;61292;-19
2021/12/25 11:10:45;;;;;;;2.50;1.80;;;;;;;-3.05;71.10;97888.88;101838;1316;61846;-19
2021/12/25 11:13:30;;;;;;;2.90;1.90;;;;;;;-2.89;70.31;97892.79;102060;1316;75380;-19
2021/12/25 11:19:08;;;;;;;1.90;1.20;;;;;;;-2.40;68.09;97889.36;102229;1314;73503;-19
2021/12/25 11:21:42;;;;;;;2.10;1.40;;;;;;;-2.65;68.99;97892.86;101900;1315;61308;-18
2021/12/25 11:24:38;;;;;;;4.20;1.80;;;;;;;-2.76;68.90;97896.42;102248;1312;61142;-18
2021/12/25 11:27:07;;;;;;;1.50;1.30;;;;;;;-3.11;68.67;97899.35;102260;1312;75430;-19
2021/12/25 11:29:37;;;;;;;1.70;1.30;;;;;;;-3.23;68.30;97891.57;102257;1312;76574;-18
2021/12/25 11:32:06;;;;;;;2.10;1.30;;;;;;;-3.40;69.14;97898.90;102111;1313;71485;-18
2021/12/25 11:34:36;;;;;;;2.70;1.40;;;;;;;-3.41;69.29;97902.33;102223;1318;61151;-18
2021/12/25 11:37:04;;;;;;;1.10;0.80;;;;;;;-3.64;67.89;97888.70;101931;1312;61962;-18
2021/12/25 11:39:34;;;;;;;1.20;0.70;;;;;;;-3.56;68.12;97902.95;101765;1319;74662;-19
2021/12/25 11:42:08;;;;;;;0.60;0.60;;;;;;;-3.73;67.86;97895.52;101993;1313;75714;-18
2021/12/25 11:44:53;;;;;;;1.60;1.00;;;;;;;-3.70;68.92;97902.67;101661;1318;74526;-18
2021/12/25 11:47:28;;;;;;;1.70;0.90;;;;;;;-3.71;68.66;97903.41;101731;1312;62750;-18
2021/12/25 11:49:58;;;;;;;1.20;0.90;;;;;;;-3.22;67.84;97907.97;102108;1315;61231;-18
2021/12/25 11:52:36;;;;;;;0.80;0.80;;;;;;;-2.95;66.85;97922.09;101739;1315;74555;-19
2021/12/25 11:55:34;;;;;;;1.40;0.60;;;;;;;-2.94;65.95;97924.21;101950;1313;76191;-19
2021/12/25 11:58:17;;;;;;;1.50;1.10;;;;;;;-3.27;66.41;97941.27;102070;1314;72796;-19
2021/12/25 12:00:48;;;;;;;1.40;0.70;;;;;;;-3.32;66.29;97942.70;101774;1315;61686;-18
2021/12/25 12:03:41;;;;;;;1.10;1.00;;;;;;;-3.44;65.84;97947.76;101697;1312;61171;-18
2021/12/25 12:06:10;;;;;;;;;;;;;;;-3.54;65.81;97955.63;102192;1316;75372;-18
2021/12/25 12:08:54;;;;;;;0.90;0.70;;;;;;;-3.63;66.84;97967.23;102278;1316;73279;-19
2021/12/25 12:11:43;;;;;;;1.30;0.90;;;;;;;-3.71;67.02;97958.20;102075;1312;73534;-18
2021/12/25 12:14:23;;;;;;;1.30;1.00;;;;;;;-3.73;68.03;97967.27;101839;1315;61899;-18
2021/12/25 12:17:17;;;;;;;2.00;1.40;;;;;;;-3.73;67.67;97968.82;101917;1313;61231;-19
2021/12/25 12:19:51;;;;;;;1.10;0.80;;;;;;;-3.89;67.91;97973.66;102161;1312;73912;-18
2021/12/25 12:27:40;;;;;;;1.70;0.90;;;;;;;-3.20;64.55;97973.73;102062;1312;61838;-19
2021/12/25 12:30:10;;;;;;;1.10;0.70;;;;;;;-3.28;64.87;97971.71;102182;1313;61420;-18
2021/12/25 12:32:53;;;;;;;3.00;0.90;;;;;;;-3.29;64.98;97971.73;102168;1313;75435;-18
2021/12/25 12:35:54;;;;;;;0.70;0.70;;;;;;;-3.34;65.66;97980.79;102285;1313;76145;-18
2021/12/25 12:38:35;;;;;;;1.40;1.10;;;;;;;-3.39;65.85;97995.77;101385;1319;74645;-18
2021/12/25 12:41:25;;;;;;;1.40;1.00;;;;;;;-3.66;66.02;97997.70;101617;1319;61240;-19
2021/12/25 12:43:57;;;;;;;1.90;1.40;;;;;;;-3.69;67.14;97992.91;101444;1319;61177;-19
2021/12/25 12:46:47;;;;;;;1.20;0.80;;;;;;;-3.72;67.26;97994.05;101410;1322;75791;-18
2021/12/25 12:49:18;;;;;;;2.40;0.80;;;;;;;-3.81;67.05;98000.14;101663;1320;76635;-19
2021/12/25 12:52:08;;;;;;;2.00;1.10;;;;;;;-3.81;67.72;98003.91;101296;1321;74682;-19
2021/12/25 12:54:54;;;;;;;1.50;0.90;;;;;;;-3.86;67.99;98013.59;101382;1319;61391;-19
2021/12/25 12:57:26;;;;;;;1.00;0.90;;;;;;;-3.92;68.07;98000.93;101569;1319;61330;-18
2021/12/25 12:59:59;;;;;;;1.70;1.20;;;;;;;-3.88;68.65;98003.16;101603;1325;74606;-18
2021/12/25 13:02:29;;;;;;;2.30;1.10;;;;;;;-3.95;68.02;98001.73;101605;1319;75037;-18
2021/12/25 13:05:04;;;;;;;1.60;1.10;;;;;;;-3.49;66.90;98009.56;101318;1322;73498;-18
2021/12/25 13:07:36;;;;;;;1.60;0.90;;;;;;;-3.20;65.08;98011.77;101322;1320;61302;-19
2021/12/25 13:10:14;;;;;;;2.60;0.90;;;;;;;-3.12;64.43;98025.38;101604;1319;61975;-19
2021/12/25 13:12:46;;;;;;;1.70;0.80;;;;;;;-3.27;65.31;98033.13;101383;1320;75595;-19
2021/12/25 13:15:20;;;;;;;1.60;1.00;;;;;;;-3.53;65.82;98034.34;102004;1315;76294;-19
2021/12/25 13:17:50;;;;;;;1.40;0.70;;;;;;;-3.61;66.73;98033.64;101761;1318;74683;-18
2021/12/25 13:20:19;;;;;;;1.80;1.10;;;;;;;-3.67;66.89;98040.67;102126;1316;61219;-18
2021/12/25 13:22:58;;;;;;;1.80;0.80;;;;;;;-3.66;67.45;98050.65;101894;1319;61358;-18
2021/12/25 13:25:26;;;;;;;2.10;1.00;;;;;;;-3.82;67.54;98051.59;101862;1312;74929;-18
2021/12/25 13:27:59;;;;;;;1.50;0.90;;;;;;;-3.87;67.82;98049.73;102306;1315;75219;-19